Time;durP1;ratioP1;P1;durP2;ratioP2;P2;SDS_P1;SDS_P2;PMS_P1;PMS_P2;Temp;Humidity;BMP_temperature;BMP_pressure;BME280_temperature;BME280_humidity;BME280_pressure;Samples;Min_cycle;Max_cycle;Signal;HPM_P1;HPM_P2
2024/02/17 00:04:00;;;;;;;24.50;20.17;;;;;;;;;;10245955;28;20100;-61
2024/02/17 00:08:58;;;;;;;30.75;21.30;;;;;;;;;;10247302;28;20096;-61
2024/02/17 00:13:56;;;;;;;29.50;21.30;;;;;;;;;;10253296;28;20080;-62
2024/02/17 00:18:55;;;;;;;42.33;25.38;;;;;;;;;;10252905;28;20073;-62
2024/02/17 00:23:55;;;;;;;27.98;20.20;;;;;;;;;;10253960;28;20081;-62
2024/02/17 00:28:53;;;;;;;49.90;31.20;;;;;;;;;;10251891;28;20525;-61
2024/02/17 00:33:52;;;;;;;32.60;22.33;;;;;;;;;;10252670;28;20068;-61
2024/02/17 00:38:51;;;;;;;27.13;21.40;;;;;;;;;;10253837;28;20072;-61
2024/02/17 00:43:51;;;;;;;33.55;24.23;;;;;;;;;;10252283;28;20515;-62
2024/02/17 00:48:50;;;;;;;48.28;33.05;;;;;;;;;;10250456;28;20065;-61
2024/02/17 00:53:48;;;;;;;40.17;29.15;;;;;;;;;;10251843;28;20081;-61
2024/02/17 00:58:46;;;;;;;29.50;21.65;;;;;;;;;;10245916;28;20071;-62
2024/02/17 01:03:46;;;;;;;35.88;22.70;;;;;;;;;;10246482;28;20076;-63
2024/02/17 01:08:45;;;;;;;31.50;20.85;;;;;;;;;;10244764;28;20072;-63
2024/02/17 01:13:43;;;;;;;31.15;21.23;;;;;;;;;;10250893;28;20085;-62
2024/02/17 01:18:41;;;;;;;28.40;21.30;;;;;;;;;;10248402;28;20068;-63
2024/02/17 01:23:41;;;;;;;35.00;25.75;;;;;;;;;;10249242;28;20537;-62
2024/02/17 01:28:39;;;;;;;35.85;26.17;;;;;;;;;;10245939;28;20073;-63
2024/02/17 01:33:37;;;;;;;31.90;22.95;;;;;;;;;;10251629;28;20720;-62
2024/02/17 01:38:36;;;;;;;37.72;27.23;;;;;;;;;;10249898;28;20080;-63
2024/02/17 01:43:36;;;;;;;35.10;24.88;;;;;;;;;;10248617;28;20068;-62
2024/02/17 01:48:34;;;;;;;33.90;23.50;;;;;;;;;;10250082;28;20076;-62
2024/02/17 01:53:33;;;;;;;30.75;23.25;;;;;;;;;;10247806;28;20077;-61
2024/02/17 01:58:31;;;;;;;28.27;21.60;;;;;;;;;;10247719;28;20088;-62
2024/02/17 02:03:31;;;;;;;29.48;21.58;;;;;;;;;;10247037;28;20073;-62
2024/02/17 02:08:29;;;;;;;34.15;22.48;;;;;;;;;;10250821;28;20080;-63
2024/02/17 02:13:27;;;;;;;30.55;21.38;;;;;;;;;;10248547;28;20073;-63
2024/02/17 02:18:26;;;;;;;36.53;23.58;;;;;;;;;;10249160;28;20065;-62
2024/02/17 02:23:28;;;;;;;32.00;22.98;;;;;;;;;;10246261;28;20546;-62
2024/02/17 02:28:28;;;;;;;37.38;23.90;;;;;;;;;;10249902;28;20480;-63
2024/02/17 02:33:26;;;;;;;41.28;22.90;;;;;;;;;;10246807;28;20105;-61
2024/02/17 02:38:24;;;;;;;30.35;22.88;;;;;;;;;;10250935;28;20592;-61
2024/02/17 02:43:23;;;;;;;37.42;23.10;;;;;;;;;;10245084;28;20091;-62
2024/02/17 02:48:23;;;;;;;33.00;23.75;;;;;;;;;;10247797;28;20648;-63
2024/02/17 02:53:21;;;;;;;36.38;23.90;;;;;;;;;;10247214;28;20084;-61
2024/02/17 02:58:20;;;;;;;34.50;23.08;;;;;;;;;;10245629;28;20519;-62
2024/02/17 03:03:18;;;;;;;32.10;23.98;;;;;;;;;;10243929;28;20061;-62
2024/02/17 03:08:21;;;;;;;33.55;23.33;;;;;;;;;;10245302;28;20519;-63
2024/02/17 03:13:19;;;;;;;33.38;23.63;;;;;;;;;;10245039;28;20080;-62
2024/02/17 03:18:17;;;;;;;33.38;23.30;;;;;;;;;;10248412;28;20088;-61
2024/02/17 03:23:16;;;;;;;31.65;22.77;;;;;;;;;;10245506;28;20536;-62
2024/02/17 03:28:15;;;;;;;34.25;23.30;;;;;;;;;;10245673;28;20069;-62
2024/02/17 03:33:14;;;;;;;32.05;21.40;;;;;;;;;;10246342;28;20072;-62
2024/02/17 03:38:12;;;;;;;32.50;22.33;;;;;;;;;;10249317;28;20077;-62
2024/02/17 03:43:10;;;;;;;31.50;20.80;;;;;;;;;;10248451;28;20080;-61
2024/02/17 03:48:10;;;;;;;32.53;21.30;;;;;;;;;;10253656;28;20073;-62
2024/02/17 03:53:08;;;;;;;33.45;22.25;;;;;;;;;;10251928;28;20280;-62
2024/02/17 03:58:07;;;;;;;37.15;22.50;;;;;;;;;;10249826;28;20087;-63
2024/02/17 04:03:05;;;;;;;31.45;22.80;;;;;;;;;;10254976;28;20339;-62
2024/02/17 04:08:07;;;;;;;34.90;22.42;;;;;;;;;;10254992;28;20068;-62
2024/02/17 04:13:05;;;;;;;32.83;20.17;;;;;;;;;;10251327;28;20549;-63
2024/02/17 04:18:06;;;;;;;34.67;23.02;;;;;;;;;;10253657;28;20065;-62
2024/02/17 04:23:07;;;;;;;30.77;20.05;;;;;;;;;;10253563;28;20084;-63
2024/02/17 04:28:06;;;;;;;27.95;20.95;;;;;;;;;;10251027;28;20069;-63
2024/02/17 04:33:04;;;;;;;31.67;20.30;;;;;;;;;;10254728;28;20803;-63
2024/02/17 04:38:03;;;;;;;27.02;20.02;;;;;;;;;;10252304;28;20897;-63
2024/02/17 04:43:03;;;;;;;25.13;19.33;;;;;;;;;;10251472;28;20069;-63
2024/02/17 04:48:01;;;;;;;32.58;20.10;;;;;;;;;;10253748;28;20095;-63
2024/02/17 04:53:00;;;;;;;30.58;19.38;;;;;;;;;;10250774;28;20088;-61
2024/02/17 04:57:58;;;;;;;29.05;21.10;;;;;;;;;;10250366;28;20080;-61
2024/02/17 05:02:58;;;;;;;30.83;19.52;;;;;;;;;;10252082;28;20519;-61
2024/02/17 05:07:56;;;;;;;26.63;19.45;;;;;;;;;;10250756;28;20083;-61
2024/02/17 05:12:54;;;;;;;29.45;18.63;;;;;;;;;;10249546;28;20084;-62
2024/02/17 05:17:55;;;;;;;29.48;20.23;;;;;;;;;;10248453;28;20072;-62
2024/02/17 05:22:55;;;;;;;27.88;20.00;;;;;;;;;;10246955;28;20085;-62
2024/02/17 05:27:53;;;;;;;29.27;19.55;;;;;;;;;;10248923;28;20287;-62
2024/02/17 05:32:51;;;;;;;30.85;19.92;;;;;;;;;;10250049;28;20088;-62
2024/02/17 05:37:50;;;;;;;30.08;19.08;;;;;;;;;;10254344;28;20084;-62
2024/02/17 05:42:49;;;;;;;27.85;19.90;;;;;;;;;;10248291;28;20084;-62
2024/02/17 05:47:48;;;;;;;24.98;19.55;;;;;;;;;;10252278;28;20084;-61
2024/02/17 05:52:49;;;;;;;30.63;20.20;;;;;;;;;;10253051;28;20080;-61
2024/02/17 05:57:49;;;;;;;29.15;19.23;;;;;;;;;;10247620;28;20088;-61
2024/02/17 06:02:47;;;;;;;33.47;21.92;;;;;;;;;;10250449;28;20087;-61
2024/02/17 06:07:45;;;;;;;30.73;21.23;;;;;;;;;;10246732;28;20075;-62
2024/02/17 06:12:44;;;;;;;31.25;20.60;;;;;;;;;;10254056;28;20087;-60
2024/02/17 06:17:46;;;;;;;31.45;21.80;;;;;;;;;;10253044;28;20072;-61
2024/02/17 06:22:44;;;;;;;32.00;20.10;;;;;;;;;;10249103;28;20076;-61
2024/02/17 06:27:45;;;;;;;36.13;21.77;;;;;;;;;;10249110;28;20068;-61
2024/02/17 06:32:45;;;;;;;30.63;21.77;;;;;;;;;;10251074;28;20072;-61
2024/02/17 06:37:43;;;;;;;31.00;21.42;;;;;;;;;;10247910;28;20081;-61
2024/02/17 06:42:42;;;;;;;32.22;20.83;;;;;;;;;;10249283;28;20077;-61
2024/02/17 06:47:41;;;;;;;32.10;21.73;;;;;;;;;;10248892;28;20095;-62
2024/02/17 06:52:40;;;;;;;31.27;20.73;;;;;;;;;;10250697;28;20069;-61
2024/02/17 06:57:39;;;;;;;29.67;20.15;;;;;;;;;;10243262;28;20076;-62
2024/02/17 07:02:37;;;;;;;26.55;18.65;;;;;;;;;;10241226;28;20083;-62
2024/02/17 07:07:35;;;;;;;27.77;19.15;;;;;;;;;;10247108;28;20194;-62
2024/02/17 07:12:35;;;;;;;27.58;19.20;;;;;;;;;;10238388;28;20761;-63
2024/02/17 07:17:33;;;;;;;27.02;19.10;;;;;;;;;;10240733;28;20106;-62
2024/02/17 07:22:31;;;;;;;28.35;20.67;;;;;;;;;;10249260;28;20538;-62
2024/02/17 07:27:29;;;;;;;28.70;19.75;;;;;;;;;;10250610;28;20479;-62
2024/02/17 07:32:30;;;;;;;26.55;17.67;;;;;;;;;;10256223;28;20096;-62
2024/02/17 07:37:28;;;;;;;24.20;17.65;;;;;;;;;;10255720;28;20073;-62
2024/02/17 07:42:28;;;;;;;20.52;15.90;;;;;;;;;;10250834;28;20510;-61
2024/02/17 07:47:26;;;;;;;25.33;16.98;;;;;;;;;;10258164;28;20627;-63
2024/02/17 07:52:26;;;;;;;21.17;15.30;;;;;;;;;;10254919;28;20644;-62
2024/02/17 07:57:24;;;;;;;20.92;15.38;;;;;;;;;;10252882;28;20076;-62
2024/02/17 08:02:22;;;;;;;22.38;15.75;;;;;;;;;;10254052;28;20443;-61
2024/02/17 08:07:21;;;;;;;25.15;16.60;;;;;;;;;;10250487;28;20064;-61
2024/02/17 08:12:23;;;;;;;22.90;15.57;;;;;;;;;;10256791;28;20068;-61
2024/02/17 08:17:22;;;;;;;23.88;15.90;;;;;;;;;;10254309;28;20068;-61
2024/02/17 08:22:20;;;;;;;26.67;17.95;;;;;;;;;;10258522;28;20075;-61
2024/02/17 08:27:19;;;;;;;25.35;18.17;;;;;;;;;;10249590;28;20503;-60
2024/02/17 08:32:19;;;;;;;23.58;16.40;;;;;;;;;;10252474;28;20075;-61
2024/02/17 08:37:18;;;;;;;35.80;25.75;;;;;;;;;;10253457;28;20076;-62
2024/02/17 08:42:16;;;;;;;20.67;15.63;;;;;;;;;;10250309;28;20072;-61
2024/02/17 08:47:14;;;;;;;22.80;16.10;;;;;;;;;;10251506;28;20538;-61
2024/02/17 08:52:14;;;;;;;24.70;16.45;;;;;;;;;;10250924;28;20259;-61
2024/02/17 08:57:12;;;;;;;26.20;16.90;;;;;;;;;;10248981;28;20064;-62
2024/02/17 09:02:16;;;;;;;22.95;16.58;;;;;;;;;;10252130;28;20085;-62
2024/02/17 09:07:16;;;;;;;22.50;16.00;;;;;;;;;;10248719;28;20117;-61
2024/02/17 09:12:15;;;;;;;23.20;15.35;;;;;;;;;;10250665;28;20072;-62
2024/02/17 09:17:13;;;;;;;21.13;15.30;;;;;;;;;;10253241;28;20069;-62
2024/02/17 09:22:12;;;;;;;21.20;15.98;;;;;;;;;;10252461;28;20467;-62
2024/02/17 09:27:14;;;;;;;22.45;16.10;;;;;;;;;;10254068;28;20573;-62
2024/02/17 09:32:13;;;;;;;25.02;14.68;;;;;;;;;;10250404;28;20068;-62
2024/02/17 09:37:11;;;;;;;19.05;13.68;;;;;;;;;;10249096;28;20084;-62
2024/02/17 09:42:09;;;;;;;17.77;12.80;;;;;;;;;;10249877;28;20072;-62
2024/02/17 09:47:09;;;;;;;18.77;12.48;;;;;;;;;;10247068;28;20695;-61
2024/02/17 09:52:08;;;;;;;18.80;12.55;;;;;;;;;;10248928;28;20061;-61
2024/02/17 09:57:06;;;;;;;17.27;13.30;;;;;;;;;;10246037;28;20072;-61
2024/02/17 10:02:04;;;;;;;19.80;14.43;;;;;;;;;;10252982;28;20069;-62
2024/02/17 10:07:04;;;;;;;20.63;15.43;;;;;;;;;;10248446;28;20075;-62
2024/02/17 10:12:07;;;;;;;22.90;16.60;;;;;;;;;;10248762;28;20455;-61
2024/02/17 10:17:08;;;;;;;17.83;13.95;;;;;;;;;;10248418;28;20095;-60
2024/02/17 10:22:07;;;;;;;31.52;21.52;;;;;;;;;;10250457;28;20084;-62
2024/02/17 10:27:06;;;;;;;21.23;14.65;;;;;;;;;;10243150;28;20069;-61
2024/02/17 10:32:05;;;;;;;32.50;23.85;;;;;;;;;;10251130;28;20069;-61
2024/02/17 10:37:03;;;;;;;31.73;23.02;;;;;;;;;;10247978;28;20494;-59
2024/02/17 10:42:03;;;;;;;24.08;18.10;;;;;;;;;;10246544;28;20060;-62
2024/02/17 10:47:03;;;;;;;25.42;19.52;;;;;;;;;;10245434;28;20068;-62
2024/02/17 10:52:04;;;;;;;25.83;18.55;;;;;;;;;;10247281;28;20508;-62
2024/02/17 10:57:04;;;;;;;23.63;16.45;;;;;;;;;;10255290;28;20077;-61
2024/02/17 11:02:04;;;;;;;27.17;15.73;;;;;;;;;;10249745;28;20500;-62
2024/02/17 11:07:02;;;;;;;31.73;21.60;;;;;;;;;;10254206;28;20073;-62
2024/02/17 11:12:15;;;;;;;26.90;19.77;;;;;;;;;;10251620;28;20076;-62
2024/02/17 11:17:15;;;;;;;23.02;17.83;;;;;;;;;;10248573;28;20077;-63
2024/02/17 11:22:14;;;;;;;22.02;16.63;;;;;;;;;;10248685;28;20088;-62
2024/02/17 11:27:12;;;;;;;24.35;16.65;;;;;;;;;;10255266;28;20164;-63
2024/02/17 11:32:14;;;;;;;25.58;19.73;;;;;;;;;;10252417;28;20076;-62
2024/02/17 11:37:13;;;;;;;25.25;16.73;;;;;;;;;;10249564;28;20081;-62
2024/02/17 11:42:12;;;;;;;22.63;15.93;;;;;;;;;;10251483;28;20552;-63
2024/02/17 11:47:11;;;;;;;20.65;15.55;;;;;;;;;;10253232;28;20076;-62
2024/02/17 11:52:09;;;;;;;19.25;15.13;;;;;;;;;;10249023;28;20061;-62
2024/02/17 11:57:10;;;;;;;23.63;15.82;;;;;;;;;;10253129;28;20072;-62
2024/02/17 12:02:14;;;;;;;26.27;23.58;;;;;;;;;;10246515;28;20122;-62
2024/02/17 12:07:12;;;;;;;20.48;15.30;;;;;;;;;;10251284;28;20068;-62
2024/02/17 12:12:12;;;;;;;28.05;16.35;;;;;;;;;;10257058;28;20081;-63
2024/02/17 12:17:10;;;;;;;20.83;15.10;;;;;;;;;;10259606;28;20533;-62
2024/02/17 12:22:08;;;;;;;22.35;16.48;;;;;;;;;;10255545;28;20084;-61
2024/02/17 12:27:07;;;;;;;19.15;14.38;;;;;;;;;;10257830;28;20072;-62
2024/02/17 12:32:18;;;;;;;20.92;14.45;;;;;;;;;;10256177;28;20087;-62
2024/02/17 12:37:17;;;;;;;17.90;14.63;;;;;;;;;;10258522;28;20103;-62
2024/02/17 12:42:15;;;;;;;37.67;25.98;;;;;;;;;;10262592;28;20068;-62
2024/02/17 12:47:20;;;;;;;26.13;18.50;;;;;;;;;;10251993;28;20096;-63
2024/02/17 12:52:20;;;;;;;37.70;22.75;;;;;;;;;;10254021;28;20080;-62
2024/02/17 12:57:18;;;;;;;56.70;39.80;;;;;;;;;;10261384;28;20080;-62
2024/02/17 13:02:18;;;;;;;33.05;24.63;;;;;;;;;;10256581;28;20064;-62
2024/02/17 13:07:16;;;;;;;19.13;15.55;;;;;;;;;;10256700;28;20091;-63
2024/02/17 13:12:15;;;;;;;21.83;15.55;;;;;;;;;;10252800;28;20069;-62
2024/02/17 13:17:13;;;;;;;23.08;17.73;;;;;;;;;;10256222;28;20067;-61
2024/02/17 13:22:13;;;;;;;18.10;14.07;;;;;;;;;;10250690;28;20065;-62
2024/02/17 13:27:12;;;;;;;26.83;20.48;;;;;;;;;;10258081;28;20113;-62
2024/02/17 13:32:10;;;;;;;27.55;18.88;;;;;;;;;;10255926;28;20279;-63
2024/02/17 13:37:08;;;;;;;21.20;16.25;;;;;;;;;;10255160;28;20530;-62
2024/02/17 13:42:08;;;;;;;22.63;16.63;;;;;;;;;;10257436;28;20073;-62
2024/02/17 13:47:06;;;;;;;23.98;18.63;;;;;;;;;;10253977;28;20491;-62
2024/02/17 13:52:05;;;;;;;26.27;18.42;;;;;;;;;;10251893;28;20087;-62
2024/02/17 13:57:04;;;;;;;21.40;16.13;;;;;;;;;;10256365;28;20085;-61
2024/02/17 14:02:03;;;;;;;29.58;21.70;;;;;;;;;;10255509;28;20107;-62
2024/02/17 14:07:02;;;;;;;21.20;16.10;;;;;;;;;;10255204;28;20072;-63
2024/02/17 14:12:00;;;;;;;22.10;16.60;;;;;;;;;;10254773;28;20076;-63
2024/02/17 14:16:58;;;;;;;26.52;18.63;;;;;;;;;;10247566;28;20092;-63
2024/02/17 14:22:00;;;;;;;26.85;21.38;;;;;;;;;;10254328;28;20072;-62
2024/02/17 14:26:59;;;;;;;30.15;23.10;;;;;;;;;;10258370;28;20442;-63
2024/02/17 14:31:57;;;;;;;31.13;23.95;;;;;;;;;;10246537;28;20072;-62
2024/02/17 14:36:57;;;;;;;33.85;24.08;;;;;;;;;;10248705;28;20549;-63
2024/02/17 14:41:57;;;;;;;36.10;25.00;;;;;;;;;;10255042;28;20124;-62
2024/02/17 14:46:55;;;;;;;31.88;24.92;;;;;;;;;;10254980;28;20077;-61
2024/02/17 14:51:53;;;;;;;26.35;20.98;;;;;;;;;;10252925;28;20083;-62
2024/02/17 14:56:52;;;;;;;35.05;24.63;;;;;;;;;;10248005;28;20506;-63
2024/02/17 15:01:52;;;;;;;36.50;29.35;;;;;;;;;;10251410;28;20080;-62
2024/02/17 15:06:50;;;;;;;45.78;34.50;;;;;;;;;;10254773;28;20534;-63
2024/02/17 15:11:49;;;;;;;34.58;29.75;;;;;;;;;;10250344;28;20076;-62
2024/02/17 15:16:47;;;;;;;47.75;34.53;;;;;;;;;;10249533;28;20084;-63
2024/02/17 15:21:46;;;;;;;32.92;24.17;;;;;;;;;;10252626;28;20501;-61
2024/02/17 15:26:45;;;;;;;35.08;25.33;;;;;;;;;;10251843;28;20091;-63
2024/02/17 15:31:43;;;;;;;32.30;21.50;;;;;;;;;;10250632;28;20076;-64
2024/02/17 15:36:42;;;;;;;67.85;40.50;;;;;;;;;;10247826;28;20307;-64
2024/02/17 15:41:41;;;;;;;33.65;24.85;;;;;;;;;;10248886;28;20056;-63
2024/02/17 15:46:39;;;;;;;33.83;25.77;;;;;;;;;;10256993;28;20065;-63
2024/02/17 15:51:38;;;;;;;32.38;23.77;;;;;;;;;;10254972;28;20072;-63
2024/02/17 15:56:37;;;;;;;24.25;21.15;;;;;;;;;;10263010;28;20077;-62
2024/02/17 16:01:38;;;;;;;30.27;23.67;;;;;;;;;;10258832;28;20060;-62
2024/02/17 16:06:37;;;;;;;22.23;18.23;;;;;;;;;;10258245;28;20080;-62
2024/02/17 16:11:35;;;;;;;33.95;25.40;;;;;;;;;;10258618;28;20077;-63
2024/02/17 16:16:33;;;;;;;35.10;29.27;;;;;;;;;;10258730;28;20072;-61
2024/02/17 16:21:35;;;;;;;61.88;42.13;;;;;;;;;;10270690;28;20077;-62
2024/02/17 16:26:36;;;;;;;42.58;32.25;;;;;;;;;;10257456;28;20072;-60
2024/02/17 16:31:34;;;;;;;44.78;33.67;;;;;;;;;;10261070;28;20064;-62
2024/02/17 16:36:34;;;;;;;35.72;29.15;;;;;;;;;;10259122;28;20171;-62
2024/02/17 16:41:32;;;;;;;44.08;35.10;;;;;;;;;;10259414;28;20093;-62
2024/02/17 16:46:30;;;;;;;49.58;36.75;;;;;;;;;;10264344;28;20474;-62
2024/02/17 16:51:29;;;;;;;28.33;20.95;;;;;;;;;;10259995;28;20076;-62
2024/02/17 16:56:33;;;;;;;26.65;22.10;;;;;;;;;;10259153;28;20069;-63
2024/02/17 17:01:32;;;;;;;28.10;20.10;;;;;;;;;;10257018;28;20064;-63
2024/02/17 17:06:30;;;;;;;27.88;21.92;;;;;;;;;;10260720;28;20061;-62
2024/02/17 17:11:31;;;;;;;22.02;16.98;;;;;;;;;;10263905;28;20068;-62
2024/02/17 17:16:30;;;;;;;29.30;25.98;;;;;;;;;;10255796;28;20072;-63
2024/02/17 17:21:28;;;;;;;41.72;33.75;;;;;;;;;;10265920;28;20060;-63
2024/02/17 17:26:28;;;;;;;23.50;18.75;;;;;;;;;;10271717;28;20502;-62
2024/02/17 17:31:46;;;;;;;22.83;18.65;;;;;;;;;;10260846;28;20478;-62
2024/02/17 17:36:46;;;;;;;18.88;15.88;;;;;;;;;;10265134;28;20099;-63
2024/02/17 17:41:45;;;;;;;22.88;19.02;;;;;;;;;;10258206;28;20699;-62
2024/02/17 17:46:47;;;;;;;22.55;16.83;;;;;;;;;;10261983;28;20069;-62
2024/02/17 17:51:46;;;;;;;30.05;21.83;;;;;;;;;;10254343;28;20077;-63
2024/02/17 17:56:45;;;;;;;23.50;19.90;;;;;;;;;;10259374;28;20072;-63
2024/02/17 18:01:43;;;;;;;21.85;18.52;;;;;;;;;;10257780;28;20068;-62
2024/02/17 18:06:42;;;;;;;26.05;19.58;;;;;;;;;;10262628;28;20080;-62
2024/02/17 18:11:42;;;;;;;43.95;30.27;;;;;;;;;;10260048;28;20060;-63
2024/02/17 18:16:40;;;;;;;50.20;33.55;;;;;;;;;;10263552;28;20068;-62
2024/02/17 18:21:39;;;;;;;59.50;36.67;;;;;;;;;;10258350;28;20073;-61
2024/02/17 18:26:39;;;;;;;33.72;25.55;;;;;;;;;;10257447;28;20068;-62
2024/02/17 18:31:38;;;;;;;31.95;26.77;;;;;;;;;;10255258;28;20068;-63
2024/02/17 18:36:37;;;;;;;65.93;58.25;;;;;;;;;;10252939;28;20482;-62
2024/02/17 18:41:35;;;;;;;62.70;55.92;;;;;;;;;;10254708;28;20072;-63
2024/02/17 18:46:38;;;;;;;34.38;29.55;;;;;;;;;;10254329;28;20084;-61
2024/02/17 18:51:37;;;;;;;39.65;31.35;;;;;;;;;;10251138;28;20076;-64
2024/02/17 18:56:36;;;;;;;30.95;24.10;;;;;;;;;;10260096;28;20075;-63
2024/02/17 19:01:35;;;;;;;27.25;21.58;;;;;;;;;;10248908;28;20077;-62
2024/02/17 19:06:35;;;;;;;22.65;17.85;;;;;;;;;;10253130;28;20080;-63
2024/02/17 19:11:33;;;;;;;24.50;17.63;;;;;;;;;;10251983;28;20073;-63
2024/02/17 19:16:32;;;;;;;20.25;16.88;;;;;;;;;;10255761;28;20068;-63
2024/02/17 19:21:30;;;;;;;20.48;17.30;;;;;;;;;;10259347;28;20092;-62
2024/02/17 19:26:30;;;;;;;22.98;16.83;;;;;;;;;;10265666;28;20079;-62
2024/02/17 19:31:32;;;;;;;18.23;15.25;;;;;;;;;;10262712;28;20076;-61
2024/02/17 19:36:30;;;;;;;16.42;13.45;;;;;;;;;;10258854;28;20076;-61
2024/02/17 19:41:30;;;;;;;20.05;15.25;;;;;;;;;;10261964;28;20080;-62
2024/02/17 19:46:29;;;;;;;17.25;13.88;;;;;;;;;;10260496;28;20071;-61
2024/02/17 19:51:27;;;;;;;17.92;13.60;;;;;;;;;;10261082;28;20513;-62
2024/02/17 19:56:26;;;;;;;17.63;13.00;;;;;;;;;;10262245;28;20075;-62
2024/02/17 20:01:28;;;;;;;17.77;13.88;;;;;;;;;;10259823;28;20077;-59
2024/02/17 20:06:27;;;;;;;17.52;14.18;;;;;;;;;;10262044;28;20076;-62
2024/02/17 20:11:26;;;;;;;18.63;14.32;;;;;;;;;;10262495;28;20068;-62
2024/02/17 20:16:25;;;;;;;20.23;15.05;;;;;;;;;;10260169;28;20069;-62
2024/02/17 20:21:23;;;;;;;18.75;15.27;;;;;;;;;;10258354;28;20061;-62
2024/02/17 20:26:22;;;;;;;18.08;14.48;;;;;;;;;;10260032;28;20072;-62
2024/02/17 20:31:23;;;;;;;21.20;15.18;;;;;;;;;;10260032;28;20065;-61
2024/02/17 20:36:22;;;;;;;19.88;15.43;;;;;;;;;;10261252;28;20525;-62
2024/02/17 20:41:21;;;;;;;21.13;15.95;;;;;;;;;;10252987;28;20088;-63
2024/02/17 20:46:20;;;;;;;17.92;13.32;;;;;;;;;;10258691;28;20079;-61
2024/02/17 20:51:18;;;;;;;19.90;15.07;;;;;;;;;;10255062;28;20061;-63
2024/02/17 20:56:18;;;;;;;22.42;15.88;;;;;;;;;;10257223;28;20073;-62
2024/02/17 21:01:16;;;;;;;19.58;16.63;;;;;;;;;;10252879;28;20467;-62
2024/02/17 21:06:14;;;;;;;21.30;15.93;;;;;;;;;;10257508;28;20080;-62
2024/02/17 21:11:13;;;;;;;29.83;17.48;;;;;;;;;;10257154;28;20073;-64
2024/02/17 21:16:13;;;;;;;18.02;14.82;;;;;;;;;;10255057;28;20629;-63
2024/02/17 21:21:11;;;;;;;17.17;14.13;;;;;;;;;;10253723;28;20076;-63
2024/02/17 21:26:09;;;;;;;18.52;14.60;;;;;;;;;;10257223;28;20065;-63
2024/02/17 21:31:08;;;;;;;17.67;13.52;;;;;;;;;;10258049;28;20080;-63
2024/02/17 21:36:08;;;;;;;16.38;13.10;;;;;;;;;;10258598;28;20102;-63
2024/02/17 21:41:06;;;;;;;17.23;12.85;;;;;;;;;;10251254;28;20077;-63
2024/02/17 21:46:05;;;;;;;16.25;12.55;;;;;;;;;;10253067;28;20076;-63
2024/02/17 21:51:03;;;;;;;15.75;13.00;;;;;;;;;;10258457;28;20071;-63
2024/02/17 21:56:03;;;;;;;15.60;12.18;;;;;;;;;;10252908;28;20465;-63
2024/02/17 22:01:01;;;;;;;14.82;12.05;;;;;;;;;;10252774;28;20091;-63
2024/02/17 22:06:00;;;;;;;14.77;12.80;;;;;;;;;;10252371;28;20068;-63
2024/02/17 22:10:58;;;;;;;18.88;12.13;;;;;;;;;;10256498;28;20448;-63
2024/02/17 22:15:58;;;;;;;14.60;11.05;;;;;;;;;;10252118;28;20540;-63
2024/02/17 22:20:56;;;;;;;13.90;11.65;;;;;;;;;;10248215;28;20111;-63
2024/02/17 22:25:54;;;;;;;16.63;12.02;;;;;;;;;;10245439;28;20091;-63
2024/02/17 22:30:53;;;;;;;15.13;11.95;;;;;;;;;;10253349;28;20088;-64
2024/02/17 22:35:54;;;;;;;16.13;12.50;;;;;;;;;;10254472;28;20073;-62
2024/02/17 22:40:53;;;;;;;15.57;12.02;;;;;;;;;;10259893;28;20065;-61
2024/02/17 22:45:53;;;;;;;14.18;12.02;;;;;;;;;;10253043;28;20083;-62
2024/02/17 22:50:52;;;;;;;16.33;12.88;;;;;;;;;;10256399;28;20465;-63
2024/02/17 22:55:51;;;;;;;13.02;10.43;;;;;;;;;;10251112;28;20065;-62
2024/02/17 23:00:49;;;;;;;12.43;10.68;;;;;;;;;;10250159;28;20088;-62
2024/02/17 23:05:47;;;;;;;12.90;11.18;;;;;;;;;;10248225;28;20066;-63
2024/02/17 23:10:48;;;;;;;13.23;11.55;;;;;;;;;;10249372;28;20064;-62
2024/02/17 23:15:46;;;;;;;13.00;10.85;;;;;;;;;;10254211;28;20519;-62
2024/02/17 23:20:45;;;;;;;13.23;11.38;;;;;;;;;;10249971;28;20079;-63
2024/02/17 23:25:43;;;;;;;12.85;10.48;;;;;;;;;;10250597;28;20085;-63
2024/02/17 23:30:43;;;;;;;14.20;11.43;;;;;;;;;;10252060;28;20483;-62
2024/02/17 23:35:42;;;;;;;12.52;11.20;;;;;;;;;;10248959;28;20064;-62
2024/02/17 23:40:40;;;;;;;13.27;11.00;;;;;;;;;;10249096;28;20315;-61
2024/02/17 23:45:38;;;;;;;13.27;10.18;;;;;;;;;;10247113;28;20073;-62
2024/02/17 23:50:38;;;;;;;12.57;10.88;;;;;;;;;;10252809;28;20069;-63
2024/02/17 23:55:37;;;;;;;13.73;10.93;;;;;;;;;;10253429;28;20084;-62
